sensor_id;sensor_type;location;lat;lon;timestamp;P1;durP1;ratioP1;P2;durP2;ratioP2
69795;SDS011;57073;45.650;9.612;2022-10-31T00:09:19;7.90;;;2.43;;
69795;SDS011;57073;45.650;9.612;2022-10-31T00:19:20;8.07;;;2.47;;
69795;SDS011;57073;45.650;9.612;2022-10-31T00:29:20;11.32;;;2.53;;
69795;SDS011;57073;45.650;9.612;2022-10-31T00:39:20;8.10;;;2.30;;
69795;SDS011;57073;45.650;9.612;2022-10-31T00:49:21;8.93;;;2.63;;
69795;SDS011;57073;45.650;9.612;2022-10-31T00:59:21;7.72;;;2.50;;
69795;SDS011;57073;45.650;9.612;2022-10-31T01:09:22;7.33;;;2.77;;
69795;SDS011;57073;45.650;9.612;2022-10-31T01:19:22;10.52;;;3.20;;
69795;SDS011;57073;45.650;9.612;2022-10-31T01:29:22;6.60;;;2.80;;
69795;SDS011;57073;45.650;9.612;2022-10-31T01:39:23;5.32;;;2.28;;
69795;SDS011;57073;45.650;9.612;2022-10-31T01:49:29;7.53;;;2.30;;
69795;SDS011;57073;45.650;9.612;2022-10-31T01:59:38;7.87;;;2.43;;
69795;SDS011;57073;45.650;9.612;2022-10-31T02:09:44;7.77;;;2.30;;
69795;SDS011;57073;45.650;9.612;2022-10-31T02:19:55;6.10;;;2.20;;
69795;SDS011;57073;45.650;9.612;2022-10-31T02:50:16;9.83;;;3.10;;
69795;SDS011;57073;45.650;9.612;2022-10-31T03:00:22;7.93;;;2.23;;
69795;SDS011;57073;45.650;9.612;2022-10-31T03:10:27;5.70;;;1.60;;
69795;SDS011;57073;45.650;9.612;2022-10-31T03:31:13;8.67;;;2.00;;
69795;SDS011;57073;45.650;9.612;2022-10-31T03:41:25;7.67;;;1.70;;
69795;SDS011;57073;45.650;9.612;2022-10-31T04:01:52;9.20;;;1.87;;
69795;SDS011;57073;45.650;9.612;2022-10-31T04:12:00;7.97;;;2.28;;
69795;SDS011;57073;45.650;9.612;2022-10-31T04:22:03;7.07;;;1.43;;
69795;SDS011;57073;45.650;9.612;2022-10-31T04:32:03;7.38;;;1.70;;
69795;SDS011;57073;45.650;9.612;2022-10-31T04:42:04;9.63;;;1.80;;
69795;SDS011;57073;45.650;9.612;2022-10-31T04:52:04;7.67;;;1.50;;
69795;SDS011;57073;45.650;9.612;2022-10-31T05:02:05;8.80;;;2.00;;
69795;SDS011;57073;45.650;9.612;2022-10-31T05:12:05;8.65;;;1.88;;
69795;SDS011;57073;45.650;9.612;2022-10-31T05:22:06;9.30;;;2.10;;
69795;SDS011;57073;45.650;9.612;2022-10-31T05:32:06;9.07;;;1.90;;
69795;SDS011;57073;45.650;9.612;2022-10-31T05:42:06;7.13;;;1.80;;
69795;SDS011;57073;45.650;9.612;2022-10-31T05:52:07;8.77;;;2.05;;
69795;SDS011;57073;45.650;9.612;2022-10-31T06:02:07;7.03;;;1.80;;
69795;SDS011;57073;45.650;9.612;2022-10-31T06:12:07;7.57;;;1.80;;
69795;SDS011;57073;45.650;9.612;2022-10-31T06:22:08;7.53;;;2.38;;
69795;SDS011;57073;45.650;9.612;2022-10-31T06:32:09;9.30;;;2.53;;
69795;SDS011;57073;45.650;9.612;2022-10-31T06:42:11;7.50;;;2.17;;
69795;SDS011;57073;45.650;9.612;2022-10-31T06:52:11;7.70;;;1.75;;
69795;SDS011;57073;45.650;9.612;2022-10-31T07:02:12;5.18;;;1.92;;
69795;SDS011;57073;45.650;9.612;2022-10-31T07:12:12;8.77;;;2.50;;
69795;SDS011;57073;45.650;9.612;2022-10-31T07:22:13;7.90;;;2.20;;
69795;SDS011;57073;45.650;9.612;2022-10-31T07:32:13;11.25;;;1.85;;
69795;SDS011;57073;45.650;9.612;2022-10-31T07:42:13;14.23;;;2.27;;
69795;SDS011;57073;45.650;9.612;2022-10-31T07:52:14;8.32;;;2.40;;
69795;SDS011;57073;45.650;9.612;2022-10-31T08:02:14;8.15;;;2.13;;
69795;SDS011;57073;45.650;9.612;2022-10-31T08:12:14;8.03;;;1.83;;
69795;SDS011;57073;45.650;9.612;2022-10-31T08:22:15;9.23;;;2.03;;
69795;SDS011;57073;45.650;9.612;2022-10-31T08:32:16;8.47;;;2.10;;
69795;SDS011;57073;45.650;9.612;2022-10-31T08:42:16;13.88;;;2.65;;
69795;SDS011;57073;45.650;9.612;2022-10-31T08:52:16;6.97;;;2.13;;
69795;SDS011;57073;45.650;9.612;2022-10-31T09:02:17;9.57;;;2.20;;
69795;SDS011;57073;45.650;9.612;2022-10-31T09:12:17;11.75;;;2.75;;
69795;SDS011;57073;45.650;9.612;2022-10-31T09:22:17;11.02;;;2.78;;
69795;SDS011;57073;45.650;9.612;2022-10-31T09:32:18;10.47;;;3.03;;
69795;SDS011;57073;45.650;9.612;2022-10-31T09:52:32;11.20;;;3.25;;
69795;SDS011;57073;45.650;9.612;2022-10-31T10:12:46;11.30;;;2.83;;
69795;SDS011;57073;45.650;9.612;2022-10-31T10:33:24;12.53;;;3.57;;
69795;SDS011;57073;45.650;9.612;2022-10-31T10:43:34;12.00;;;3.60;;
69795;SDS011;57073;45.650;9.612;2022-10-31T10:53:45;17.33;;;3.90;;
69795;SDS011;57073;45.650;9.612;2022-10-31T11:04:01;12.10;;;4.33;;
69795;SDS011;57073;45.650;9.612;2022-10-31T11:14:03;15.05;;;4.32;;
69795;SDS011;57073;45.650;9.612;2022-10-31T11:24:22;15.80;;;4.70;;
69795;SDS011;57073;45.650;9.612;2022-10-31T11:44:29;15.18;;;4.55;;
69795;SDS011;57073;45.650;9.612;2022-10-31T11:54:41;10.57;;;4.70;;
69795;SDS011;57073;45.650;9.612;2022-10-31T12:04:46;15.07;;;4.80;;
69795;SDS011;57073;45.650;9.612;2022-10-31T12:15:09;11.80;;;4.03;;
69795;SDS011;57073;45.650;9.612;2022-10-31T12:35:55;13.45;;;3.65;;
69795;SDS011;57073;45.650;9.612;2022-10-31T12:46:25;13.40;;;4.07;;
69795;SDS011;57073;45.650;9.612;2022-10-31T13:06:55;10.87;;;3.30;;
69795;SDS011;57073;45.650;9.612;2022-10-31T13:16:59;10.40;;;3.97;;
69795;SDS011;57073;45.650;9.612;2022-10-31T13:27:02;9.00;;;3.50;;
69795;SDS011;57073;45.650;9.612;2022-10-31T13:47:37;13.10;;;3.97;;
69795;SDS011;57073;45.650;9.612;2022-10-31T13:57:38;12.65;;;4.05;;
69795;SDS011;57073;45.650;9.612;2022-10-31T14:07:42;11.77;;;4.10;;
69795;SDS011;57073;45.650;9.612;2022-10-31T14:18:04;11.95;;;3.67;;
69795;SDS011;57073;45.650;9.612;2022-10-31T14:28:20;25.57;;;7.77;;
69795;SDS011;57073;45.650;9.612;2022-10-31T14:38:36;14.27;;;4.53;;
69795;SDS011;57073;45.650;9.612;2022-10-31T14:59:15;10.83;;;4.07;;
69795;SDS011;57073;45.650;9.612;2022-10-31T15:19:28;13.33;;;4.70;;
69795;SDS011;57073;45.650;9.612;2022-10-31T15:29:31;12.03;;;3.87;;
69795;SDS011;57073;45.650;9.612;2022-10-31T15:39:31;13.85;;;3.83;;
69795;SDS011;57073;45.650;9.612;2022-10-31T15:59:32;17.40;;;5.55;;
69795;SDS011;57073;45.650;9.612;2022-10-31T16:09:32;13.63;;;4.43;;
69795;SDS011;57073;45.650;9.612;2022-10-31T16:19:33;17.47;;;5.70;;
69795;SDS011;57073;45.650;9.612;2022-10-31T16:29:41;16.83;;;5.77;;
69795;SDS011;57073;45.650;9.612;2022-10-31T16:39:43;18.83;;;6.40;;
69795;SDS011;57073;45.650;9.612;2022-10-31T16:49:43;15.70;;;5.90;;
69795;SDS011;57073;45.650;9.612;2022-10-31T16:59:48;15.57;;;5.97;;
69795;SDS011;57073;45.650;9.612;2022-10-31T17:09:53;21.80;;;7.23;;
69795;SDS011;57073;45.650;9.612;2022-10-31T17:19:53;25.23;;;7.70;;
69795;SDS011;57073;45.650;9.612;2022-10-31T17:29:54;19.53;;;6.27;;
69795;SDS011;57073;45.650;9.612;2022-10-31T17:39:54;16.67;;;5.10;;
69795;SDS011;57073;45.650;9.612;2022-10-31T17:49:54;21.98;;;4.85;;
69795;SDS011;57073;45.650;9.612;2022-10-31T17:59:55;12.05;;;4.50;;
69795;SDS011;57073;45.650;9.612;2022-10-31T18:09:55;11.80;;;4.93;;
69795;SDS011;57073;45.650;9.612;2022-10-31T18:19:56;14.07;;;6.07;;
69795;SDS011;57073;45.650;9.612;2022-10-31T18:29:56;11.80;;;4.82;;
69795;SDS011;57073;45.650;9.612;2022-10-31T18:39:56;12.48;;;4.68;;
69795;SDS011;57073;45.650;9.612;2022-10-31T18:49:57;14.50;;;5.20;;
69795;SDS011;57073;45.650;9.612;2022-10-31T18:59:57;12.55;;;4.47;;
69795;SDS011;57073;45.650;9.612;2022-10-31T19:09:57;11.48;;;5.15;;
69795;SDS011;57073;45.650;9.612;2022-10-31T19:19:58;19.02;;;5.65;;
69795;SDS011;57073;45.650;9.612;2022-10-31T19:29:58;18.23;;;5.60;;
69795;SDS011;57073;45.650;9.612;2022-10-31T19:40:00;10.60;;;4.73;;
69795;SDS011;57073;45.650;9.612;2022-10-31T19:50:01;12.33;;;5.17;;
69795;SDS011;57073;45.650;9.612;2022-10-31T20:00:04;15.77;;;6.10;;
69795;SDS011;57073;45.650;9.612;2022-10-31T20:10:05;14.87;;;4.93;;
69795;SDS011;57073;45.650;9.612;2022-10-31T20:20:07;15.37;;;5.40;;
69795;SDS011;57073;45.650;9.612;2022-10-31T20:30:08;15.10;;;6.30;;
69795;SDS011;57073;45.650;9.612;2022-10-31T20:40:09;13.75;;;6.20;;
69795;SDS011;57073;45.650;9.612;2022-10-31T20:50:11;13.97;;;5.77;;
69795;SDS011;57073;45.650;9.612;2022-10-31T21:00:11;11.95;;;5.95;;
69795;SDS011;57073;45.650;9.612;2022-10-31T21:10:12;11.87;;;5.60;;
69795;SDS011;57073;45.650;9.612;2022-10-31T21:20:15;15.93;;;6.10;;
69795;SDS011;57073;45.650;9.612;2022-10-31T21:30:15;14.27;;;5.70;;
69795;SDS011;57073;45.650;9.612;2022-10-31T21:40:16;12.27;;;5.00;;
69795;SDS011;57073;45.650;9.612;2022-10-31T21:50:16;12.65;;;5.10;;
69795;SDS011;57073;45.650;9.612;2022-10-31T22:00:17;11.60;;;5.07;;
69795;SDS011;57073;45.650;9.612;2022-10-31T22:10:17;11.27;;;4.32;;
69795;SDS011;57073;45.650;9.612;2022-10-31T22:20:17;10.63;;;4.10;;
69795;SDS011;57073;45.650;9.612;2022-10-31T22:30:20;11.23;;;3.60;;
69795;SDS011;57073;45.650;9.612;2022-10-31T22:40:20;11.20;;;3.60;;
69795;SDS011;57073;45.650;9.612;2022-10-31T22:50:20;7.85;;;3.70;;
69795;SDS011;57073;45.650;9.612;2022-10-31T23:00:21;6.27;;;2.60;;
69795;SDS011;57073;45.650;9.612;2022-10-31T23:10:21;10.35;;;3.20;;
69795;SDS011;57073;45.650;9.612;2022-10-31T23:20:32;7.35;;;3.13;;
69795;SDS011;57073;45.650;9.612;2022-10-31T23:30:32;6.13;;;2.80;;
69795;SDS011;57073;45.650;9.612;2022-10-31T23:40:32;8.00;;;3.50;;
69795;SDS011;57073;45.650;9.612;2022-10-31T23:50:35;11.47;;;3.13;;
